Time;durP1;ratioP1;P1;durP2;ratioP2;P2;SDS_P1;SDS_P2;PMS_P1;PMS_P2;Temp;Humidity;BMP_temperature;BMP_pressure;BME280_temperature;BME280_humidity;BME280_pressure;Samples;Min_cycle;Max_cycle;Signal;HPM_P1;HPM_P2
2023/03/06 00:00:28;;;;;;;3.70;1.90;;;3.20;99.90;;;;;;5011826;28;20556;-84
2023/03/06 00:02:54;;;;;;;5.70;1.73;;;3.20;99.90;;;;;;5015576;28;20298;-84
2023/03/06 00:05:20;;;;;;;4.50;1.37;;;3.20;99.90;;;;;;5005829;28;20266;-86
2023/03/06 00:07:46;;;;;;;4.97;1.80;;;3.30;99.90;;;;;;4995984;28;20314;-84
2023/03/06 00:10:19;;;;;;;3.77;1.50;;;3.20;99.90;;;;;;4995377;28;20274;-84
2023/03/06 00:12:45;;;;;;;3.87;1.60;;;3.20;99.90;;;;;;4995977;28;20603;-85
2023/03/06 00:15:12;;;;;;;4.07;2.00;;;3.20;99.90;;;;;;4996230;28;20192;-84
2023/03/06 00:17:38;;;;;;;2.60;1.60;;;3.20;99.90;;;;;;4996234;28;20184;-84
2023/03/06 00:20:05;;;;;;;5.83;1.40;;;3.20;99.90;;;;;;4996385;28;20615;-84
2023/03/06 00:22:31;;;;;;;3.33;1.57;;;3.20;99.90;;;;;;5002892;28;20253;-84
2023/03/06 00:24:57;;;;;;;3.83;1.80;;;3.20;99.90;;;;;;5014449;28;20618;-84
2023/03/06 00:27:25;;;;;;;6.33;2.23;;;3.20;99.90;;;;;;5015174;28;20606;-84
2023/03/06 00:29:55;;;;;;;2.50;1.47;;;3.20;99.90;;;;;;5014886;28;20186;-84
2023/03/06 00:32:21;;;;;;;5.87;1.33;;;3.10;99.90;;;;;;5015146;28;20226;-84
2023/03/06 00:34:51;;;;;;;4.00;1.57;;;3.10;99.90;;;;;;5015350;28;20176;-85
2023/03/06 00:37:17;;;;;;;5.07;1.77;;;3.10;99.90;;;;;;4996011;28;20191;-85
2023/03/06 00:39:43;;;;;;;1.70;1.40;;;3.10;99.90;;;;;;5010372;28;20235;-83
2023/03/06 00:42:08;;;;;;;3.53;1.40;;;3.10;99.90;;;;;;5030729;28;20175;-85
2023/03/06 00:44:34;;;;;;;3.17;1.60;;;3.10;99.90;;;;;;5016008;28;20215;-85
2023/03/06 00:47:00;;;;;;;7.53;1.83;;;3.00;99.90;;;;;;5031537;28;20178;-84
2023/03/06 00:49:25;;;;;;;3.27;1.40;;;3.00;99.90;;;;;;5030902;28;20183;-84
2023/03/06 00:51:51;;;;;;;2.43;1.33;;;3.10;99.90;;;;;;5030381;28;20175;-83
2023/03/06 00:54:17;;;;;;;5.17;1.27;;;3.10;99.90;;;;;;5014457;28;20167;-85
2023/03/06 00:56:42;;;;;;;6.03;1.57;;;3.10;99.90;;;;;;5013884;28;20645;-82
2023/03/06 00:59:10;;;;;;;2.93;1.43;;;3.10;99.90;;;;;;5014072;28;20167;-84
2023/03/06 01:01:36;;;;;;;3.77;1.50;;;3.00;99.90;;;;;;5016061;28;20172;-84
2023/03/06 01:04:02;;;;;;;6.27;1.60;;;3.10;99.90;;;;;;5030962;28;20657;-83
2023/03/06 01:06:28;;;;;;;3.63;1.40;;;3.00;99.90;;;;;;5030141;28;20179;-84
2023/03/06 01:08:53;;;;;;;4.10;1.30;;;3.00;99.90;;;;;;5030515;28;20183;-83
2023/03/06 01:11:19;;;;;;;9.87;1.80;;;3.00;99.90;;;;;;5031010;28;20177;-84
2023/03/06 01:13:45;;;;;;;5.33;1.37;;;3.10;99.90;;;;;;5031040;28;20191;-85
2023/03/06 01:16:13;;;;;;;3.70;1.53;;;3.00;99.90;;;;;;5031094;28;20175;-84
2023/03/06 01:18:40;;;;;;;4.03;1.63;;;3.10;99.90;;;;;;5023525;28;20218;-85
2023/03/06 01:21:06;;;;;;;9.80;2.17;;;3.10;99.90;;;;;;5014686;28;20168;-84
2023/03/06 01:23:32;;;;;;;3.17;1.10;;;3.10;99.90;;;;;;5014404;28;20697;-85
2023/03/06 01:25:59;;;;;;;4.37;1.77;;;3.10;99.90;;;;;;5014724;28;20267;-85
2023/03/06 01:28:27;;;;;;;4.63;1.50;;;3.00;99.90;;;;;;5013532;28;20213;-84
2023/03/06 01:30:53;;;;;;;3.73;1.70;;;3.10;99.90;;;;;;5013236;28;20254;-84
2023/03/06 01:33:19;;;;;;;4.50;1.87;;;3.10;99.90;;;;;;5014214;28;20210;-84
2023/03/06 01:35:44;;;;;;;5.00;1.80;;;3.00;99.90;;;;;;5014075;28;20210;-84
2023/03/06 01:38:10;;;;;;;5.57;1.60;;;3.00;99.90;;;;;;5014219;28;20179;-84
2023/03/06 01:40:37;;;;;;;1.90;1.47;;;2.90;99.90;;;;;;5014620;28;20527;-83
2023/03/06 01:43:31;;;;;;;4.03;1.80;;;3.00;99.90;;;;;;5013397;28;20681;-84
2023/03/06 01:46:31;;;;;;;5.40;1.80;;;3.00;99.90;;;;;;5011798;28;20266;-84
2023/03/06 01:49:26;;;;;;;2.93;1.63;;;2.90;99.90;;;;;;5014085;28;20167;-83
2023/03/06 01:52:17;;;;;;;4.97;2.00;;;3.00;99.90;;;;;;5013554;28;20493;-84
2023/03/06 01:54:49;;;;;;;6.10;2.20;;;3.00;99.90;;;;;;5003054;28;20190;-84
2023/03/06 01:57:32;;;;;;;3.13;2.07;;;3.00;99.90;;;;;;5011594;28;20254;-84
2023/03/06 02:00:08;;;;;;;3.67;2.10;;;3.00;99.90;;;;;;4993710;28;20270;-84
2023/03/06 02:02:35;;;;;;;4.80;2.33;;;3.00;99.90;;;;;;5000193;28;20205;-84
2023/03/06 02:05:04;;;;;;;5.30;2.10;;;3.10;99.90;;;;;;5014957;28;20229;-84
2023/03/06 02:07:30;;;;;;;5.17;2.03;;;3.10;99.90;;;;;;5013191;28;20228;-84
2023/03/06 02:09:58;;;;;;;6.60;2.53;;;3.10;99.90;;;;;;5012699;28;20183;-84
2023/03/06 02:12:25;;;;;;;3.33;1.97;;;3.10;99.90;;;;;;5013276;28;20172;-83
2023/03/06 02:14:51;;;;;;;3.43;2.10;;;3.00;99.90;;;;;;5013440;28;20178;-84
2023/03/06 02:17:19;;;;;;;7.97;2.20;;;3.10;99.90;;;;;;5013600;28;20175;-84
2023/03/06 02:20:09;;;;;;;5.37;2.23;;;3.10;99.90;;;;;;5012898;28;20190;-85
2023/03/06 02:23:00;;;;;;;3.23;1.93;;;3.00;99.90;;;;;;5014466;28;20514;-84
2023/03/06 02:25:45;;;;;;;7.13;2.63;;;3.00;99.90;;;;;;4986150;28;20192;-83
2023/03/06 02:28:15;;;;;;;6.40;2.37;;;3.00;99.90;;;;;;5012515;28;20187;-84
2023/03/06 02:30:43;;;;;;;6.40;2.50;;;3.10;99.90;;;;;;5012224;28;20179;-84
2023/03/06 02:33:15;;;;;;;7.40;2.30;;;3.10;99.90;;;;;;5014524;28;20171;-85
2023/03/06 02:36:01;;;;;;;7.37;2.37;;;3.10;99.90;;;;;;5012883;28;20335;-84
2023/03/06 02:38:35;;;;;;;7.43;2.70;;;3.10;99.90;;;;;;5012923;28;20674;-85
2023/03/06 02:41:05;;;;;;;5.73;2.50;;;3.00;99.90;;;;;;5012700;28;20187;-83
2023/03/06 02:43:33;;;;;;;5.70;2.70;;;3.00;99.90;;;;;;5013381;28;20207;-84
2023/03/06 02:48:34;;;;;;;4.83;2.27;;;3.10;99.90;;;;;;5144176;23;20309;-84
2023/03/06 02:51:00;;;;;;;5.67;2.50;;;3.10;99.90;;;;;;4992816;28;20602;-84
2023/03/06 02:53:26;;;;;;;5.20;2.50;;;3.10;99.90;;;;;;4992849;28;20610;-84
2023/03/06 02:55:52;;;;;;;4.33;2.40;;;3.10;99.90;;;;;;4991892;28;20186;-84
2023/03/06 02:58:20;;;;;;;4.97;2.80;;;3.10;99.90;;;;;;4991725;28;20575;-84
2023/03/06 03:00:47;;;;;;;4.10;2.40;;;3.10;99.90;;;;;;4993991;28;20179;-84
2023/03/06 03:03:13;;;;;;;6.87;2.80;;;3.10;99.90;;;;;;4990071;28;20335;-84
2023/03/06 03:05:38;;;;;;;7.10;2.73;;;3.10;99.90;;;;;;4973274;28;20275;-84
2023/03/06 03:08:05;;;;;;;4.50;2.40;;;3.10;99.90;;;;;;4972604;28;20595;-83
2023/03/06 03:10:30;;;;;;;5.23;2.60;;;3.20;99.90;;;;;;4972073;28;20195;-84
2023/03/06 03:12:57;;;;;;;5.50;2.63;;;3.20;99.90;;;;;;4989302;28;20185;-83
2023/03/06 03:15:23;;;;;;;8.07;2.70;;;3.20;99.90;;;;;;4989206;28;20637;-84
2023/03/06 03:17:49;;;;;;;6.30;2.67;;;3.10;99.90;;;;;;4987369;28;20618;-85
2023/03/06 03:20:17;;;;;;;4.03;2.70;;;3.10;99.90;;;;;;4991996;28;20239;-84
2023/03/06 03:22:50;;;;;;;5.60;2.50;;;3.10;99.90;;;;;;4991444;28;20204;-83
2023/03/06 03:25:16;;;;;;;4.07;2.47;;;3.10;99.90;;;;;;4992725;28;20179;-84
2023/03/06 03:27:42;;;;;;;5.60;2.87;;;3.20;99.90;;;;;;4979329;28;20188;-84
2023/03/06 03:30:09;;;;;;;7.20;2.30;;;3.20;99.90;;;;;;4985050;28;20199;-84
2023/03/06 03:32:34;;;;;;;10.70;2.77;;;3.10;99.90;;;;;;4991858;28;20187;-83
2023/03/06 03:35:00;;;;;;;10.67;2.77;;;3.10;99.90;;;;;;4984931;28;20188;-84
2023/03/06 03:37:26;;;;;;;10.83;2.70;;;3.10;99.90;;;;;;4977339;28;20208;-84
2023/03/06 03:39:51;;;;;;;7.43;2.20;;;3.10;99.90;;;;;;4991576;28;20254;-84
2023/03/06 03:42:17;;;;;;;5.53;2.60;;;3.10;99.90;;;;;;4997402;28;20215;-85
2023/03/06 03:44:43;;;;;;;4.90;2.60;;;3.10;99.90;;;;;;4985099;28;20216;-84
2023/03/06 03:47:09;;;;;;;5.27;2.27;;;3.10;99.90;;;;;;4990608;28;20257;-84
2023/03/06 03:49:34;;;;;;;3.40;2.10;;;3.00;99.90;;;;;;5016160;28;20228;-84
2023/03/06 03:52:00;;;;;;;4.97;2.23;;;3.00;99.90;;;;;;5007450;28;20192;-84
2023/03/06 03:54:26;;;;;;;4.73;2.43;;;3.00;99.90;;;;;;4995826;28;20196;-84
2023/03/06 03:56:51;;;;;;;7.70;2.53;;;3.00;99.90;;;;;;4995239;28;20262;-84
2023/03/06 03:59:17;;;;;;;10.97;2.47;;;3.00;99.90;;;;;;4992798;28;20184;-84
2023/03/06 04:01:44;;;;;;;4.60;2.50;;;2.90;99.90;;;;;;4975562;28;20187;-83
2023/03/06 04:04:10;;;;;;;7.57;2.80;;;3.00;99.90;;;;;;4976338;28;20219;-84
2023/03/06 04:06:36;;;;;;;7.57;2.83;;;3.00;99.90;;;;;;4976567;28;20724;-84
2023/03/06 04:09:03;;;;;;;6.20;2.63;;;2.90;99.90;;;;;;4975408;28;20275;-83
2023/03/06 04:11:29;;;;;;;5.60;2.40;;;3.00;99.90;;;;;;4976224;28;20542;-84
2023/03/06 04:13:55;;;;;;;7.03;3.53;;;2.90;99.90;;;;;;4976455;28;20189;-84
2023/03/06 04:16:21;;;;;;;7.93;2.70;;;2.90;99.90;;;;;;4976506;28;20189;-84
2023/03/06 04:18:47;;;;;;;7.50;2.77;;;2.90;99.90;;;;;;5012186;28;20626;-84
2023/03/06 04:21:12;;;;;;;4.43;2.30;;;2.80;99.90;;;;;;4998931;28;20188;-83
2023/03/06 04:23:38;;;;;;;5.57;3.10;;;2.90;99.90;;;;;;4995011;28;20227;-84
2023/03/06 04:26:04;;;;;;;5.37;2.83;;;2.80;99.90;;;;;;4995949;28;20188;-84
2023/03/06 04:28:30;;;;;;;4.57;3.07;;;2.90;99.90;;;;;;4996112;28;20188;-84
2023/03/06 04:30:55;;;;;;;8.00;2.80;;;2.80;99.90;;;;;;4995711;28;20599;-84
2023/03/06 04:33:21;;;;;;;5.90;2.70;;;2.80;99.90;;;;;;4995425;28;20210;-83
2023/03/06 04:35:47;;;;;;;8.80;3.13;;;2.80;99.90;;;;;;5011306;28;20187;-83
2023/03/06 04:38:12;;;;;;;10.27;3.50;;;2.80;99.90;;;;;;4994480;28;20206;-83
2023/03/06 04:40:38;;;;;;;6.33;3.07;;;2.80;99.90;;;;;;4993632;28;20184;-83
2023/03/06 04:43:04;;;;;;;7.37;2.97;;;2.80;99.90;;;;;;4984763;28;20215;-83
2023/03/06 04:45:31;;;;;;;7.27;2.90;;;2.90;99.90;;;;;;4996743;28;20187;-83
2023/03/06 04:47:58;;;;;;;3.10;2.50;;;2.90;99.90;;;;;;5004990;28;20246;-83
2023/03/06 04:50:25;;;;;;;4.27;2.30;;;2.90;99.90;;;;;;5000043;28;20519;-83
2023/03/06 04:52:51;;;;;;;3.23;2.20;;;2.90;99.90;;;;;;4994194;28;20176;-83
2023/03/06 04:55:17;;;;;;;7.17;2.13;;;2.80;99.90;;;;;;4995166;28;20198;-83
2023/03/06 04:57:45;;;;;;;6.70;2.27;;;2.80;99.90;;;;;;5011471;28;20185;-83
2023/03/06 05:00:19;;;;;;;3.80;2.10;;;2.80;99.90;;;;;;4994999;28;20192;-83
2023/03/06 05:02:46;;;;;;;3.50;1.77;;;2.70;99.90;;;;;;4994213;28;20246;-84
2023/03/06 05:05:14;;;;;;;2.20;1.53;;;2.70;99.90;;;;;;4994523;28;20196;-84
2023/03/06 05:07:40;;;;;;;3.27;1.70;;;2.60;99.90;;;;;;4995376;28;20172;-83
2023/03/06 05:10:09;;;;;;;2.40;1.80;;;2.60;99.90;;;;;;4982778;28;20631;-83
2023/03/06 05:12:36;;;;;;;2.77;1.63;;;2.50;99.90;;;;;;4986182;28;20188;-84
2023/03/06 05:15:03;;;;;;;2.90;1.97;;;2.50;99.90;;;;;;4994819;28;20278;-83
2023/03/06 05:17:29;;;;;;;1.80;1.40;;;2.50;99.90;;;;;;5000568;28;20647;-83
2023/03/06 05:19:54;;;;;;;2.40;1.57;;;2.50;99.90;;;;;;4977401;28;20188;-83
2023/03/06 05:22:20;;;;;;;3.33;1.60;;;2.50;99.90;;;;;;4979590;28;20569;-83
2023/03/06 05:24:46;;;;;;;1.93;1.50;;;2.40;99.90;;;;;;4974229;28;20690;-83
2023/03/06 05:27:12;;;;;;;3.07;1.70;;;2.50;99.90;;;;;;4975226;28;20188;-83
2023/03/06 05:29:37;;;;;;;2.63;1.70;;;2.50;99.90;;;;;;4975158;28;20181;-83
2023/03/06 05:32:03;;;;;;;2.53;1.63;;;2.40;99.90;;;;;;4976315;28;20200;-83
2023/03/06 05:34:29;;;;;;;3.30;1.37;;;2.40;99.90;;;;;;4991611;28;20637;-83
2023/03/06 05:36:55;;;;;;;1.70;1.43;;;2.50;99.90;;;;;;4994596;28;20674;-83
2023/03/06 05:39:20;;;;;;;1.73;1.33;;;2.40;99.90;;;;;;4988894;28;20577;-83
2023/03/06 05:41:46;;;;;;;4.03;3.00;;;2.40;99.90;;;;;;4989435;28;20282;-84
2023/03/06 05:44:12;;;;;;;3.23;1.70;;;2.30;99.90;;;;;;4994221;28;20211;-83
2023/03/06 05:46:37;;;;;;;2.43;2.00;;;2.30;99.90;;;;;;5009843;28;20184;-83
2023/03/06 05:49:03;;;;;;;5.70;1.50;;;2.30;99.90;;;;;;4995320;28;20530;-83
2023/03/06 05:51:30;;;;;;;4.73;1.30;;;2.30;99.90;;;;;;4974180;28;20264;-83
2023/03/06 05:53:56;;;;;;;2.43;1.30;;;2.30;99.90;;;;;;4978031;28;20188;-83
2023/03/06 05:56:21;;;;;;;2.00;1.40;;;2.30;99.90;;;;;;4975613;28;20177;-83
2023/03/06 05:58:48;;;;;;;1.40;1.30;;;2.30;99.90;;;;;;4974694;28;20225;-84
2023/03/06 06:01:19;;;;;;;2.13;1.60;;;2.30;99.90;;;;;;4979307;28;20225;-83
2023/03/06 06:03:46;;;;;;;1.70;1.40;;;2.20;99.90;;;;;;4980357;28;20654;-83
2023/03/06 06:06:13;;;;;;;4.30;2.80;;;2.20;99.90;;;;;;4979387;28;20259;-83
2023/03/06 06:08:39;;;;;;;3.67;2.80;;;2.10;99.90;;;;;;4972992;28;20184;-83
2023/03/06 06:11:07;;;;;;;3.03;2.07;;;2.10;99.90;;;;;;4975176;28;20165;-83
2023/03/06 06:13:33;;;;;;;2.40;1.90;;;2.00;99.90;;;;;;4974559;28;20199;-83
2023/03/06 06:15:59;;;;;;;1.87;1.50;;;1.90;99.90;;;;;;4974574;28;20234;-83
2023/03/06 06:18:24;;;;;;;2.10;1.70;;;2.00;99.90;;;;;;5003287;28;20278;-83
2023/03/06 06:20:50;;;;;;;2.83;1.13;;;2.00;99.90;;;;;;5014566;28;20180;-84
2023/03/06 06:23:16;;;;;;;1.50;1.20;;;1.90;99.90;;;;;;5012806;28;20297;-84
2023/03/06 06:25:41;;;;;;;1.57;1.20;;;1.80;99.90;;;;;;5012270;28;20644;-83
2023/03/06 06:28:07;;;;;;;2.27;1.00;;;1.70;99.90;;;;;;5012683;28;20183;-84
2023/03/06 06:30:33;;;;;;;2.33;1.13;;;1.70;99.90;;;;;;5006903;28;20230;-84
2023/03/06 06:32:58;;;;;;;1.30;1.20;;;1.60;99.90;;;;;;4988359;28;20191;-83
2023/03/06 06:35:25;;;;;;;1.00;0.90;;;1.60;99.90;;;;;;4991477;28;20614;-84
2023/03/06 06:37:50;;;;;;;1.93;1.23;;;1.50;99.90;;;;;;4980056;28;20179;-84
2023/03/06 06:40:16;;;;;;;1.43;1.27;;;1.50;99.90;;;;;;4992127;28;20180;-84
2023/03/06 06:42:42;;;;;;;2.47;1.10;;;1.50;99.90;;;;;;4974115;28;20617;-84
2023/03/06 06:45:09;;;;;;;2.57;2.00;;;1.40;99.90;;;;;;4986511;28;20215;-84
2023/03/06 06:47:39;;;;;;;2.37;1.57;;;1.40;99.90;;;;;;5000204;28;20564;-84
2023/03/06 06:50:07;;;;;;;2.30;1.53;;;1.40;99.90;;;;;;5012982;28;20278;-84
2023/03/06 06:52:33;;;;;;;1.17;0.97;;;1.50;99.90;;;;;;5011980;28;20179;-84
2023/03/06 06:54:59;;;;;;;1.00;0.90;;;1.50;99.90;;;;;;5014074;28;20251;-84
2023/03/06 06:57:24;;;;;;;0.90;0.60;;;1.40;99.90;;;;;;5012910;28;20508;-84
2023/03/06 06:59:50;;;;;;;1.10;1.00;;;1.50;99.90;;;;;;5012845;28;20416;-84
2023/03/06 07:02:16;;;;;;;2.43;0.77;;;1.50;99.90;;;;;;4999203;28;20396;-84
2023/03/06 07:04:42;;;;;;;1.10;0.60;;;1.50;99.90;;;;;;4992079;28;20226;-84
2023/03/06 07:07:08;;;;;;;0.90;0.70;;;1.50;99.90;;;;;;4993892;28;20234;-84
2023/03/06 07:09:34;;;;;;;0.90;0.70;;;1.50;99.90;;;;;;4988582;28;20180;-84
2023/03/06 07:11:59;;;;;;;1.60;1.00;;;1.50;99.90;;;;;;4973490;28;20177;-84
2023/03/06 07:14:26;;;;;;;2.17;1.07;;;1.50;99.90;;;;;;4978873;28;20258;-85
2023/03/06 07:16:51;;;;;;;0.93;0.80;;;1.50;99.90;;;;;;4991615;28;20180;-85
2023/03/06 07:19:17;;;;;;;1.67;1.17;;;1.50;99.90;;;;;;4993202;28;20198;-84
2023/03/06 07:21:43;;;;;;;1.37;0.80;;;1.50;99.90;;;;;;4993224;28;20188;-85
2023/03/06 07:24:08;;;;;;;1.27;0.97;;;1.40;99.90;;;;;;5010478;28;20215;-85
2023/03/06 07:26:34;;;;;;;1.17;0.93;;;1.40;99.90;;;;;;5013958;28;20171;-85
2023/03/06 07:29:00;;;;;;;1.90;0.90;;;1.40;99.90;;;;;;5012656;28;20187;-85
2023/03/06 07:31:27;;;;;;;0.73;0.60;;;1.40;99.90;;;;;;5013661;28;20222;-84
2023/03/06 07:33:53;;;;;;;2.80;0.70;;;1.40;99.90;;;;;;4999347;28;20184;-85
2023/03/06 07:36:20;;;;;;;4.33;0.60;;;1.40;99.90;;;;;;4988196;28;20180;-85
2023/03/06 07:38:46;;;;;;;1.27;0.60;;;1.40;99.90;;;;;;4994237;28;20207;-85
2023/03/06 07:41:15;;;;;;;0.73;0.60;;;1.40;99.90;;;;;;4987912;28;20657;-84
2023/03/06 07:43:41;;;;;;;0.73;0.50;;;1.50;99.90;;;;;;4986423;28;20196;-85
2023/03/06 07:46:08;;;;;;;0.93;0.40;;;1.50;99.90;;;;;;4978304;28;20186;-85
2023/03/06 07:48:35;;;;;;;1.17;0.53;;;1.60;99.90;;;;;;4991474;28;20228;-85
2023/03/06 07:51:07;;;;;;;0.87;0.50;;;1.50;99.90;;;;;;4992811;28;20184;-85
2023/03/06 07:53:34;;;;;;;5.43;0.80;;;1.60;99.90;;;;;;4978046;28;20180;-85
2023/03/06 07:56:00;;;;;;;1.23;0.80;;;1.60;99.90;;;;;;4992741;28;20271;-85
2023/03/06 07:58:26;;;;;;;1.03;0.60;;;1.50;99.90;;;;;;4993782;28;20255;-84
2023/03/06 08:00:52;;;;;;;3.57;0.50;;;1.50;99.90;;;;;;4992581;28;20275;-85
2023/03/06 08:03:17;;;;;;;0.87;0.40;;;1.60;99.90;;;;;;4992650;28;20208;-85
2023/03/06 08:05:43;;;;;;;0.50;0.50;;;1.60;99.90;;;;;;5004975;28;20183;-84
2023/03/06 08:08:10;;;;;;;1.20;0.50;;;1.60;99.90;;;;;;5001812;28;20249;-85
2023/03/06 08:10:36;;;;;;;0.67;0.50;;;1.60;99.90;;;;;;4991757;28;20195;-85
2023/03/06 08:13:02;;;;;;;0.60;0.40;;;1.60;99.90;;;;;;4984183;28;20185;-84
2023/03/06 08:15:28;;;;;;;0.87;0.53;;;1.60;99.90;;;;;;4988184;28;20187;-84
2023/03/06 08:17:54;;;;;;;0.90;0.50;;;1.60;99.90;;;;;;4996785;28;20179;-84
2023/03/06 08:20:20;;;;;;;1.23;0.50;;;1.70;99.90;;;;;;5012165;28;20584;-84
2023/03/06 08:22:47;;;;;;;1.33;0.70;;;1.70;99.90;;;;;;5004440;28;20295;-84
2023/03/06 08:25:13;;;;;;;3.20;0.80;;;1.70;99.90;;;;;;4998557;28;20263;-84
2023/03/06 08:27:39;;;;;;;1.10;0.70;;;1.70;99.90;;;;;;4995073;28;20267;-84
2023/03/06 08:30:06;;;;;;;1.30;0.60;;;1.70;99.90;;;;;;5007796;28;20195;-84
2023/03/06 08:32:35;;;;;;;1.60;0.80;;;1.70;99.90;;;;;;4996916;28;20172;-84
2023/03/06 08:35:04;;;;;;;2.10;0.60;;;1.70;99.90;;;;;;5009218;28;20282;-84
2023/03/06 08:37:30;;;;;;;1.90;0.80;;;1.70;99.90;;;;;;5014893;28;20175;-83
2023/03/06 08:39:56;;;;;;;0.90;0.70;;;1.70;99.90;;;;;;5014301;28;20499;-84
2023/03/06 08:42:21;;;;;;;1.53;0.80;;;1.80;99.90;;;;;;5015437;28;20222;-84
2023/03/06 08:44:47;;;;;;;1.60;0.90;;;1.80;99.90;;;;;;5015182;28;20605;-84
2023/03/06 08:47:13;;;;;;;1.20;0.87;;;1.80;99.90;;;;;;5014948;28;20219;-84
2023/03/06 08:49:38;;;;;;;0.97;0.87;;;1.70;99.90;;;;;;5014632;28;20221;-85
2023/03/06 08:52:06;;;;;;;1.50;0.93;;;1.70;99.90;;;;;;5013976;28;20492;-85
2023/03/06 08:54:34;;;;;;;2.67;1.20;;;1.60;99.90;;;;;;5012956;28;20190;-85
2023/03/06 08:57:00;;;;;;;5.27;2.80;;;1.60;99.90;;;;;;5014610;28;20186;-84
2023/03/06 08:59:25;;;;;;;2.97;1.90;;;1.70;99.90;;;;;;4996165;28;20191;-84
2023/03/06 09:01:51;;;;;;;2.77;1.57;;;1.70;99.90;;;;;;4979450;28;20193;-84
2023/03/06 09:04:17;;;;;;;3.17;1.50;;;1.70;99.90;;;;;;4987327;28;20598;-84
2023/03/06 09:06:44;;;;;;;2.93;1.27;;;1.70;99.90;;;;;;5006562;28;20618;-84
2023/03/06 09:09:10;;;;;;;2.40;1.03;;;1.70;99.90;;;;;;4999075;28;20221;-85
2023/03/06 09:11:36;;;;;;;1.33;0.80;;;1.80;99.90;;;;;;5004834;28;20179;-84
2023/03/06 09:14:04;;;;;;;2.57;0.90;;;1.70;99.90;;;;;;4994175;28;20176;-83
2023/03/06 09:16:30;;;;;;;2.30;0.70;;;1.70;99.90;;;;;;5012322;28;20202;-84
2023/03/06 09:18:56;;;;;;;1.67;0.90;;;1.70;99.90;;;;;;4993697;28;20262;-84
2023/03/06 09:21:23;;;;;;;1.87;0.97;;;1.60;99.90;;;;;;4974448;28;20516;-84
2023/03/06 09:23:49;;;;;;;1.30;0.70;;;1.60;99.90;;;;;;4982144;28;20200;-84
2023/03/06 09:26:15;;;;;;;4.87;2.77;;;1.50;99.90;;;;;;4994837;28;20438;-84
2023/03/06 09:28:41;;;;;;;7.83;4.90;;;1.50;99.90;;;;;;4983560;28;20183;-84
2023/03/06 09:31:12;;;;;;;33.13;18.87;;;1.50;99.90;;;;;;4975340;28;20176;-83
2023/03/06 09:33:38;;;;;;;8.00;4.20;;;1.50;99.90;;;;;;4990348;28;20180;-83
2023/03/06 09:36:06;;;;;;;2.33;1.40;;;1.40;99.90;;;;;;4993896;28;20190;-84
2023/03/06 09:38:31;;;;;;;1.57;1.33;;;1.40;99.90;;;;;;4994313;28;20271;-84
2023/03/06 09:41:06;;;;;;;1.50;1.40;;;1.40;99.90;;;;;;4983204;28;20687;-83
2023/03/06 09:43:49;;;;;;;2.60;1.30;;;1.40;99.90;;;;;;4995181;28;20318;-84
2023/03/06 09:46:52;;;;;;;2.27;1.37;;;1.40;99.90;;;;;;5011230;28;20187;-84
2023/03/06 09:49:55;;;;;;;2.30;1.80;;;1.50;99.90;;;;;;5014402;28;20590;-84
2023/03/06 09:52:33;;;;;;;3.30;1.77;;;1.40;99.90;;;;;;5012278;28;20241;-84
2023/03/06 09:55:10;;;;;;;4.37;2.10;;;1.40;99.90;;;;;;5008228;28;20523;-83
2023/03/06 09:57:41;;;;;;;3.17;2.60;;;1.30;99.90;;;;;;4994855;28;20178;-84
2023/03/06 10:00:18;;;;;;;4.67;3.17;;;1.30;99.90;;;;;;4994416;28;20202;-84
2023/03/06 10:02:49;;;;;;;2.20;1.33;;;1.30;99.90;;;;;;4993686;28;20254;-84
2023/03/06 10:05:32;;;;;;;1.27;1.10;;;1.20;99.90;;;;;;4991353;28;20324;-82
2023/03/06 10:08:04;;;;;;;2.53;1.40;;;1.20;99.90;;;;;;4987094;28;20187;-82
2023/03/06 10:10:38;;;;;;;1.30;1.20;;;1.20;99.90;;;;;;4990135;28;20180;-83
2023/03/06 10:13:42;;;;;;;3.53;1.77;;;1.20;99.90;;;;;;4988126;28;20187;-83
2023/03/06 10:16:28;;;;;;;2.23;1.73;;;1.30;99.90;;;;;;4985795;28;20184;-82
2023/03/06 10:18:59;;;;;;;2.97;2.00;;;1.30;99.90;;;;;;4990609;28;20180;-83
2023/03/06 10:21:44;;;;;;;2.37;1.80;;;1.40;99.90;;;;;;4991470;28;20188;-83
2023/03/06 10:24:18;;;;;;;3.13;2.33;;;1.50;99.90;;;;;;5005783;28;20215;-83
2023/03/06 10:27:02;;;;;;;10.47;6.20;;;1.50;99.90;;;;;;4976752;28;20552;-84
2023/03/06 10:29:51;;;;;;;2.37;1.80;;;1.70;99.90;;;;;;4992170;28;20260;-84
2023/03/06 10:32:24;;;;;;;1.80;1.30;;;1.80;99.90;;;;;;5001402;28;20188;-84
2023/03/06 10:34:50;;;;;;;1.80;1.33;;;1.80;99.90;;;;;;5007958;28;20270;-83
2023/03/06 10:37:20;;;;;;;3.37;1.27;;;1.80;99.90;;;;;;4991726;28;20236;-84
2023/03/06 10:39:50;;;;;;;1.27;1.00;;;1.80;99.90;;;;;;4989826;28;20621;-83
2023/03/06 10:42:17;;;;;;;1.40;1.13;;;1.80;99.90;;;;;;4992533;28;20191;-84
2023/03/06 10:44:42;;;;;;;2.83;1.33;;;1.90;99.90;;;;;;5000100;28;20212;-83
2023/03/06 10:47:30;;;;;;;1.93;1.40;;;1.90;99.90;;;;;;4988076;28;20238;-83
2023/03/06 10:49:59;;;;;;;1.83;1.43;;;2.00;99.90;;;;;;4981237;28;20230;-83
2023/03/06 10:52:32;;;;;;;2.53;1.90;;;2.00;99.90;;;;;;4990075;28;20189;-84
2023/03/06 10:55:25;;;;;;;2.43;1.43;;;2.10;99.90;;;;;;4988665;28;20179;-83
2023/03/06 10:57:51;;;;;;;2.03;1.40;;;2.20;99.90;;;;;;4989019;28;20262;-83
2023/03/06 11:00:34;;;;;;;1.80;1.10;;;2.30;99.90;;;;;;4991297;28;20650;-82
2023/03/06 11:03:22;;;;;;;1.00;0.90;;;2.40;99.90;;;;;;4983081;28;20211;-82
2023/03/06 11:06:12;;;;;;;1.70;1.27;;;2.50;99.90;;;;;;5000933;28;20258;-81
2023/03/06 11:08:39;;;;;;;2.07;1.27;;;2.50;99.90;;;;;;5000187;28;20610;-83
2023/03/06 11:11:14;;;;;;;2.13;1.40;;;2.50;99.90;;;;;;4991254;28;20525;-83
2023/03/06 11:13:43;;;;;;;1.70;1.10;;;2.60;99.90;;;;;;4990819;28;20190;-83
2023/03/06 11:16:25;;;;;;;1.80;1.40;;;2.60;99.90;;;;;;4992698;28;20176;-83
2023/03/06 11:18:57;;;;;;;1.73;1.20;;;2.60;99.90;;;;;;4991028;28;20198;-82
2023/03/06 11:21:26;;;;;;;2.03;0.97;;;2.60;99.90;;;;;;4991420;28;20533;-82
2023/03/06 11:23:54;;;;;;;1.50;1.00;;;2.70;99.90;;;;;;4993852;28;20231;-82
2023/03/06 11:26:29;;;;;;;1.47;1.10;;;2.70;99.90;;;;;;4990634;28;20580;-82
2023/03/06 11:29:20;;;;;;;1.27;0.83;;;2.70;99.90;;;;;;4999927;28;20574;-82
2023/03/06 11:32:01;;;;;;;0.63;0.63;;;2.70;99.90;;;;;;4988115;28;20188;-83
2023/03/06 11:35:06;;;;;;;1.93;0.90;;;2.80;99.90;;;;;;4986711;28;20311;-82
2023/03/06 11:37:58;;;;;;;0.90;0.70;;;2.80;99.90;;;;;;4982472;28;20195;-82
2023/03/06 11:40:31;;;;;;;1.63;1.20;;;2.90;99.90;;;;;;4986944;28;20195;-82
2023/03/06 11:43:22;;;;;;;2.73;1.43;;;2.90;99.90;;;;;;4988161;28;20259;-81
2023/03/06 11:45:53;;;;;;;1.80;1.30;;;2.90;99.90;;;;;;4991837;28;20645;-82
2023/03/06 11:48:38;;;;;;;3.87;2.73;;;2.90;99.90;;;;;;4991713;28;20220;-82
2023/03/06 11:51:34;;;;;;;1.17;1.07;;;2.90;99.90;;;;;;4991160;28;20292;-82
2023/03/06 11:54:00;;;;;;;2.30;1.80;;;2.90;99.90;;;;;;5004197;28;20211;-83
2023/03/06 11:56:53;;;;;;;3.60;1.53;;;3.00;99.90;;;;;;4988746;28;20523;-83
2023/03/06 11:59:56;;;;;;;0.77;0.70;;;2.90;99.90;;;;;;4995907;28;20187;-82
2023/03/06 12:02:42;;;;;;;1.30;1.00;;;3.00;99.90;;;;;;4987566;28;20254;-81
2023/03/06 12:05:23;;;;;;;1.70;0.93;;;3.00;99.90;;;;;;5007167;28;20594;-81
2023/03/06 12:07:54;;;;;;;3.03;0.93;;;2.90;99.90;;;;;;5005605;28;20184;-82
2023/03/06 12:10:35;;;;;;;3.73;1.20;;;2.90;99.90;;;;;;4990394;28;20184;-81
2023/03/06 12:13:28;;;;;;;1.83;1.37;;;2.90;99.90;;;;;;4991947;28;20180;-82
2023/03/06 12:16:26;;;;;;;2.87;1.30;;;2.90;99.90;;;;;;4992977;28;20191;-81
2023/03/06 12:19:24;;;;;;;1.80;1.20;;;2.80;99.90;;;;;;4977510;28;20192;-81
2023/03/06 12:22:27;;;;;;;1.93;1.30;;;2.90;99.90;;;;;;4987912;28;20206;-82
2023/03/06 12:25:02;;;;;;;4.73;2.07;;;3.00;99.90;;;;;;4970569;28;20322;-82
2023/03/06 12:27:46;;;;;;;1.80;1.40;;;3.00;99.90;;;;;;4990521;28;20183;-82
2023/03/06 12:30:26;;;;;;;1.27;1.00;;;3.00;99.90;;;;;;4994352;28;20203;-82
2023/03/06 12:33:11;;;;;;;2.13;1.33;;;3.00;99.90;;;;;;5013597;28;20292;-81
2023/03/06 12:35:54;;;;;;;3.47;1.33;;;3.00;99.90;;;;;;4989058;28;20220;-82
2023/03/06 12:39:00;;;;;;;1.57;1.17;;;3.20;99.90;;;;;;4991927;28;20186;-82
2023/03/06 12:41:38;;;;;;;3.37;1.20;;;3.20;99.90;;;;;;4992788;28;20191;-81
2023/03/06 12:44:40;;;;;;;1.43;1.07;;;3.20;99.90;;;;;;4983085;28;20204;-81
2023/03/06 12:47:13;;;;;;;3.00;1.47;;;3.40;99.90;;;;;;4987663;28;20722;-81
2023/03/06 12:49:47;;;;;;;1.70;1.23;;;3.50;99.90;;;;;;4992749;28;20270;-81
2023/03/06 12:52:23;;;;;;;1.30;1.00;;;3.50;99.90;;;;;;4985526;28;20188;-81
2023/03/06 12:54:49;;;;;;;1.73;0.97;;;3.50;99.90;;;;;;5003210;28;20262;-81
2023/03/06 12:57:15;;;;;;;1.20;0.90;;;3.50;99.90;;;;;;4992751;28;20184;-82
2023/03/06 12:59:48;;;;;;;1.60;1.00;;;3.60;99.90;;;;;;4993726;28;20187;-82
2023/03/06 13:02:17;;;;;;;2.17;1.20;;;3.70;99.90;;;;;;4995096;28;20499;-82
2023/03/06 13:05:20;;;;;;;2.00;1.10;;;3.80;99.90;;;;;;5008044;28;20211;-82
2023/03/06 13:08:02;;;;;;;2.53;1.50;;;3.80;99.90;;;;;;4990412;28;20179;-82
2023/03/06 13:10:32;;;;;;;4.17;1.43;;;3.70;99.90;;;;;;4984624;28;20188;-81
2023/03/06 13:13:01;;;;;;;1.97;0.90;;;3.60;99.90;;;;;;4994999;28;20258;-82
2023/03/06 13:15:31;;;;;;;2.03;1.30;;;3.50;99.90;;;;;;5004378;28;20249;-81
2023/03/06 13:17:57;;;;;;;3.87;0.87;;;3.70;99.90;;;;;;4989302;28;20176;-81